sensor_id;sensor_type;location;lat;lon;timestamp;P1;durP1;ratioP1;P2;durP2;ratioP2
23187;SDS011;11762;59.878;17.686;2023-02-28T00:01:05;1.13;;;0.50;;
23187;SDS011;11762;59.878;17.686;2023-02-28T00:03:33;0.53;;;0.40;;
23187;SDS011;11762;59.878;17.686;2023-02-28T00:06:00;0.73;;;0.40;;
23187;SDS011;11762;59.878;17.686;2023-02-28T00:08:29;1.13;;;0.40;;
23187;SDS011;11762;59.878;17.686;2023-02-28T00:11:00;0.80;;;0.40;;
23187;SDS011;11762;59.878;17.686;2023-02-28T00:13:28;1.23;;;0.40;;
23187;SDS011;11762;59.878;17.686;2023-02-28T00:15:58;1.20;;;0.43;;
23187;SDS011;11762;59.878;17.686;2023-02-28T00:18:26;0.90;;;0.40;;
23187;SDS011;11762;59.878;17.686;2023-02-28T00:20:53;1.00;;;0.37;;
23187;SDS011;11762;59.878;17.686;2023-02-28T00:23:20;0.57;;;0.37;;
23187;SDS011;11762;59.878;17.686;2023-02-28T00:25:49;1.03;;;0.37;;
23187;SDS011;11762;59.878;17.686;2023-02-28T00:28:16;1.13;;;0.40;;
23187;SDS011;11762;59.878;17.686;2023-02-28T00:30:44;0.63;;;0.30;;
23187;SDS011;11762;59.878;17.686;2023-02-28T00:33:11;0.60;;;0.30;;
23187;SDS011;11762;59.878;17.686;2023-02-28T00:35:38;0.70;;;0.37;;
23187;SDS011;11762;59.878;17.686;2023-02-28T00:38:05;2.33;;;0.30;;
23187;SDS011;11762;59.878;17.686;2023-02-28T00:40:32;1.53;;;0.40;;
23187;SDS011;11762;59.878;17.686;2023-02-28T00:43:00;0.57;;;0.30;;
23187;SDS011;11762;59.878;17.686;2023-02-28T00:45:28;1.93;;;0.50;;
23187;SDS011;11762;59.878;17.686;2023-02-28T00:47:55;0.70;;;0.30;;
23187;SDS011;11762;59.878;17.686;2023-02-28T00:50:22;0.23;;;0.17;;
23187;SDS011;11762;59.878;17.686;2023-02-28T00:52:49;0.70;;;0.30;;
23187;SDS011;11762;59.878;17.686;2023-02-28T00:55:16;0.77;;;0.40;;
23187;SDS011;11762;59.878;17.686;2023-02-28T00:57:43;2.53;;;0.30;;
23187;SDS011;11762;59.878;17.686;2023-02-28T01:00:12;0.77;;;0.40;;
23187;SDS011;11762;59.878;17.686;2023-02-28T01:02:40;0.77;;;0.50;;
23187;SDS011;11762;59.878;17.686;2023-02-28T01:05:07;0.70;;;0.20;;
23187;SDS011;11762;59.878;17.686;2023-02-28T01:07:35;0.30;;;0.20;;
23187;SDS011;11762;59.878;17.686;2023-02-28T01:10:02;1.00;;;0.33;;
23187;SDS011;11762;59.878;17.686;2023-02-28T01:12:29;0.90;;;0.33;;
23187;SDS011;11762;59.878;17.686;2023-02-28T01:14:56;0.80;;;0.40;;
23187;SDS011;11762;59.878;17.686;2023-02-28T01:17:25;1.00;;;0.43;;
23187;SDS011;11762;59.878;17.686;2023-02-28T01:19:53;0.50;;;0.33;;
23187;SDS011;11762;59.878;17.686;2023-02-28T01:22:20;0.50;;;0.27;;
23187;SDS011;11762;59.878;17.686;2023-02-28T01:24:47;0.53;;;0.20;;
23187;SDS011;11762;59.878;17.686;2023-02-28T01:27:14;0.50;;;0.30;;
23187;SDS011;11762;59.878;17.686;2023-02-28T01:29:41;3.90;;;0.30;;
23187;SDS011;11762;59.878;17.686;2023-02-28T01:32:08;1.03;;;0.40;;
23187;SDS011;11762;59.878;17.686;2023-02-28T01:34:37;0.50;;;0.20;;
23187;SDS011;11762;59.878;17.686;2023-02-28T01:37:04;0.20;;;0.20;;
23187;SDS011;11762;59.878;17.686;2023-02-28T01:39:31;0.20;;;0.20;;
23187;SDS011;11762;59.878;17.686;2023-02-28T01:41:58;1.97;;;0.30;;
23187;SDS011;11762;59.878;17.686;2023-02-28T01:47:25;1.27;;;0.40;;
23187;SDS011;11762;59.878;17.686;2023-02-28T01:49:55;0.77;;;0.30;;
23187;SDS011;11762;59.878;17.686;2023-02-28T01:52:23;0.40;;;0.20;;
23187;SDS011;11762;59.878;17.686;2023-02-28T01:54:52;0.70;;;0.40;;
23187;SDS011;11762;59.878;17.686;2023-02-28T01:57:22;0.20;;;0.20;;
23187;SDS011;11762;59.878;17.686;2023-02-28T01:59:56;0.67;;;0.40;;
23187;SDS011;11762;59.878;17.686;2023-02-28T02:02:26;0.20;;;0.10;;
23187;SDS011;11762;59.878;17.686;2023-02-28T02:04:57;0.50;;;0.20;;
23187;SDS011;11762;59.878;17.686;2023-02-28T02:07:27;0.30;;;0.30;;
23187;SDS011;11762;59.878;17.686;2023-02-28T02:10:02;0.80;;;0.30;;
23187;SDS011;11762;59.878;17.686;2023-02-28T02:12:34;0.53;;;0.37;;
23187;SDS011;11762;59.878;17.686;2023-02-28T02:15:14;0.30;;;0.20;;
23187;SDS011;11762;59.878;17.686;2023-02-28T02:17:46;0.10;;;0.10;;
23187;SDS011;11762;59.878;17.686;2023-02-28T02:23:26;0.50;;;0.17;;
23187;SDS011;11762;59.878;17.686;2023-02-28T02:26:19;0.30;;;0.20;;
23187;SDS011;11762;59.878;17.686;2023-02-28T02:29:13;0.50;;;0.20;;
23187;SDS011;11762;59.878;17.686;2023-02-28T02:31:53;1.03;;;0.40;;
23187;SDS011;11762;59.878;17.686;2023-02-28T02:34:42;0.57;;;0.30;;
23187;SDS011;11762;59.878;17.686;2023-02-28T02:37:21;0.40;;;0.20;;
23187;SDS011;11762;59.878;17.686;2023-02-28T02:39:58;0.57;;;0.30;;
23187;SDS011;11762;59.878;17.686;2023-02-28T02:42:31;0.50;;;0.10;;
23187;SDS011;11762;59.878;17.686;2023-02-28T02:45:06;0.47;;;0.20;;
23187;SDS011;11762;59.878;17.686;2023-02-28T02:47:37;0.80;;;0.53;;
23187;SDS011;11762;59.878;17.686;2023-02-28T02:50:11;0.37;;;0.20;;
23187;SDS011;11762;59.878;17.686;2023-02-28T02:52:40;0.67;;;0.30;;
23187;SDS011;11762;59.878;17.686;2023-02-28T02:55:11;0.67;;;0.33;;
23187;SDS011;11762;59.878;17.686;2023-02-28T02:57:40;1.20;;;0.53;;
23187;SDS011;11762;59.878;17.686;2023-02-28T03:00:12;2.37;;;0.50;;
23187;SDS011;11762;59.878;17.686;2023-02-28T03:02:42;0.30;;;0.27;;
23187;SDS011;11762;59.878;17.686;2023-02-28T03:05:14;0.93;;;0.40;;
23187;SDS011;11762;59.878;17.686;2023-02-28T03:07:45;0.40;;;0.20;;
23187;SDS011;11762;59.878;17.686;2023-02-28T03:10:25;0.67;;;0.30;;
23187;SDS011;11762;59.878;17.686;2023-02-28T03:15:58;0.60;;;0.30;;
23187;SDS011;11762;59.878;17.686;2023-02-28T03:18:40;1.13;;;0.30;;
23187;SDS011;11762;59.878;17.686;2023-02-28T03:21:14;0.40;;;0.27;;
23187;SDS011;11762;59.878;17.686;2023-02-28T03:23:52;0.57;;;0.20;;
23187;SDS011;11762;59.878;17.686;2023-02-28T03:26:23;0.50;;;0.20;;
23187;SDS011;11762;59.878;17.686;2023-02-28T03:28:54;1.93;;;0.23;;
23187;SDS011;11762;59.878;17.686;2023-02-28T03:31:29;0.50;;;0.30;;
23187;SDS011;11762;59.878;17.686;2023-02-28T03:33:59;0.40;;;0.20;;
23187;SDS011;11762;59.878;17.686;2023-02-28T03:36:32;3.20;;;0.30;;
23187;SDS011;11762;59.878;17.686;2023-02-28T03:39:09;0.13;;;0.10;;
23187;SDS011;11762;59.878;17.686;2023-02-28T03:41:42;1.17;;;0.40;;
23187;SDS011;11762;59.878;17.686;2023-02-28T03:44:15;0.40;;;0.20;;
23187;SDS011;11762;59.878;17.686;2023-02-28T03:46:46;1.17;;;0.20;;
23187;SDS011;11762;59.878;17.686;2023-02-28T03:49:20;0.33;;;0.20;;
23187;SDS011;11762;59.878;17.686;2023-02-28T03:51:52;0.30;;;0.20;;
23187;SDS011;11762;59.878;17.686;2023-02-28T03:54:23;0.20;;;0.10;;
23187;SDS011;11762;59.878;17.686;2023-02-28T03:56:57;0.30;;;0.20;;
23187;SDS011;11762;59.878;17.686;2023-02-28T03:59:30;0.67;;;0.30;;
23187;SDS011;11762;59.878;17.686;2023-02-28T04:02:02;0.10;;;0.10;;
23187;SDS011;11762;59.878;17.686;2023-02-28T04:04:29;0.27;;;0.20;;
23187;SDS011;11762;59.878;17.686;2023-02-28T04:07:02;0.20;;;0.20;;
23187;SDS011;11762;59.878;17.686;2023-02-28T04:09:31;0.57;;;0.27;;
23187;SDS011;11762;59.878;17.686;2023-02-28T04:11:58;0.57;;;0.20;;
23187;SDS011;11762;59.878;17.686;2023-02-28T04:14:25;0.50;;;0.10;;
23187;SDS011;11762;59.878;17.686;2023-02-28T04:16:52;1.20;;;0.30;;
23187;SDS011;11762;59.878;17.686;2023-02-28T04:19:19;0.20;;;0.20;;
23187;SDS011;11762;59.878;17.686;2023-02-28T04:21:47;0.47;;;0.30;;
23187;SDS011;11762;59.878;17.686;2023-02-28T04:24:17;0.87;;;0.20;;
23187;SDS011;11762;59.878;17.686;2023-02-28T04:26:47;0.57;;;0.30;;
23187;SDS011;11762;59.878;17.686;2023-02-28T04:29:18;0.43;;;0.20;;
23187;SDS011;11762;59.878;17.686;2023-02-28T04:31:46;0.90;;;0.30;;
23187;SDS011;11762;59.878;17.686;2023-02-28T04:34:14;0.27;;;0.10;;
23187;SDS011;11762;59.878;17.686;2023-02-28T04:36:41;0.47;;;0.27;;
23187;SDS011;11762;59.878;17.686;2023-02-28T04:39:08;0.40;;;0.30;;
23187;SDS011;11762;59.878;17.686;2023-02-28T04:41:37;0.40;;;0.20;;
23187;SDS011;11762;59.878;17.686;2023-02-28T04:44:04;0.10;;;0.10;;
23187;SDS011;11762;59.878;17.686;2023-02-28T04:46:31;0.60;;;0.30;;
23187;SDS011;11762;59.878;17.686;2023-02-28T04:48:58;0.10;;;0.10;;
23187;SDS011;11762;59.878;17.686;2023-02-28T04:51:25;0.80;;;0.30;;
23187;SDS011;11762;59.878;17.686;2023-02-28T04:53:53;0.10;;;0.10;;
23187;SDS011;11762;59.878;17.686;2023-02-28T04:56:20;0.57;;;0.20;;
23187;SDS011;11762;59.878;17.686;2023-02-28T04:58:48;0.23;;;0.20;;
23187;SDS011;11762;59.878;17.686;2023-02-28T05:01:17;1.83;;;0.37;;
23187;SDS011;11762;59.878;17.686;2023-02-28T05:03:46;0.40;;;0.30;;
23187;SDS011;11762;59.878;17.686;2023-02-28T05:06:13;0.10;;;0.10;;
23187;SDS011;11762;59.878;17.686;2023-02-28T05:08:41;0.20;;;0.10;;
23187;SDS011;11762;59.878;17.686;2023-02-28T05:11:12;0.40;;;0.30;;
23187;SDS011;11762;59.878;17.686;2023-02-28T05:13:41;0.20;;;0.13;;
23187;SDS011;11762;59.878;17.686;2023-02-28T05:16:10;0.50;;;0.27;;
23187;SDS011;11762;59.878;17.686;2023-02-28T05:18:37;0.40;;;0.20;;
23187;SDS011;11762;59.878;17.686;2023-02-28T05:21:04;0.10;;;0.10;;
23187;SDS011;11762;59.878;17.686;2023-02-28T05:23:32;1.07;;;0.20;;
23187;SDS011;11762;59.878;17.686;2023-02-28T05:25:59;1.17;;;0.20;;
23187;SDS011;11762;59.878;17.686;2023-02-28T05:28:26;0.30;;;0.20;;
23187;SDS011;11762;59.878;17.686;2023-02-28T05:30:53;0.47;;;0.20;;
23187;SDS011;11762;59.878;17.686;2023-02-28T05:33:22;0.40;;;0.20;;
23187;SDS011;11762;59.878;17.686;2023-02-28T05:35:49;0.70;;;0.20;;
23187;SDS011;11762;59.878;17.686;2023-02-28T05:38:16;0.67;;;0.20;;
23187;SDS011;11762;59.878;17.686;2023-02-28T05:40:43;0.10;;;0.10;;
23187;SDS011;11762;59.878;17.686;2023-02-28T05:43:10;0.80;;;0.30;;
23187;SDS011;11762;59.878;17.686;2023-02-28T05:45:37;1.23;;;0.20;;
23187;SDS011;11762;59.878;17.686;2023-02-28T05:48:05;0.60;;;0.20;;
23187;SDS011;11762;59.878;17.686;2023-02-28T05:50:33;0.37;;;0.20;;
23187;SDS011;11762;59.878;17.686;2023-02-28T05:53:01;0.53;;;0.20;;
23187;SDS011;11762;59.878;17.686;2023-02-28T05:55:28;0.77;;;0.30;;
23187;SDS011;11762;59.878;17.686;2023-02-28T05:57:55;0.10;;;0.10;;
23187;SDS011;11762;59.878;17.686;2023-02-28T06:00:22;0.50;;;0.10;;
23187;SDS011;11762;59.878;17.686;2023-02-28T06:02:49;0.70;;;0.20;;
23187;SDS011;11762;59.878;17.686;2023-02-28T06:05:21;0.53;;;0.30;;
23187;SDS011;11762;59.878;17.686;2023-02-28T06:07:50;0.33;;;0.20;;
23187;SDS011;11762;59.878;17.686;2023-02-28T06:10:17;0.43;;;0.20;;
23187;SDS011;11762;59.878;17.686;2023-02-28T06:12:44;0.47;;;0.30;;
23187;SDS011;11762;59.878;17.686;2023-02-28T06:15:12;0.30;;;0.30;;
23187;SDS011;11762;59.878;17.686;2023-02-28T06:17:40;0.43;;;0.20;;
23187;SDS011;11762;59.878;17.686;2023-02-28T06:20:08;0.10;;;0.10;;
23187;SDS011;11762;59.878;17.686;2023-02-28T06:22:37;0.33;;;0.10;;
23187;SDS011;11762;59.878;17.686;2023-02-28T06:25:07;0.60;;;0.30;;
23187;SDS011;11762;59.878;17.686;2023-02-28T06:27:35;0.80;;;0.30;;
23187;SDS011;11762;59.878;17.686;2023-02-28T06:30:02;0.40;;;0.20;;
23187;SDS011;11762;59.878;17.686;2023-02-28T06:32:30;0.30;;;0.20;;
23187;SDS011;11762;59.878;17.686;2023-02-28T06:34:57;0.87;;;0.30;;
23187;SDS011;11762;59.878;17.686;2023-02-28T06:37:24;0.63;;;0.20;;
23187;SDS011;11762;59.878;17.686;2023-02-28T06:39:52;0.20;;;0.20;;
23187;SDS011;11762;59.878;17.686;2023-02-28T06:42:22;0.47;;;0.30;;
23187;SDS011;11762;59.878;17.686;2023-02-28T06:44:53;0.50;;;0.30;;
23187;SDS011;11762;59.878;17.686;2023-02-28T06:47:21;0.87;;;0.30;;
23187;SDS011;11762;59.878;17.686;2023-02-28T06:49:48;0.60;;;0.30;;
23187;SDS011;11762;59.878;17.686;2023-02-28T06:52:16;0.40;;;0.20;;
23187;SDS011;11762;59.878;17.686;2023-02-28T06:54:43;0.93;;;0.20;;
23187;SDS011;11762;59.878;17.686;2023-02-28T06:57:10;0.43;;;0.20;;
23187;SDS011;11762;59.878;17.686;2023-02-28T06:59:38;0.60;;;0.40;;
23187;SDS011;11762;59.878;17.686;2023-02-28T07:02:05;0.50;;;0.30;;
23187;SDS011;11762;59.878;17.686;2023-02-28T07:04:32;2.30;;;0.30;;
23187;SDS011;11762;59.878;17.686;2023-02-28T07:06:59;1.00;;;0.57;;
23187;SDS011;11762;59.878;17.686;2023-02-28T07:09:26;0.73;;;0.33;;
23187;SDS011;11762;59.878;17.686;2023-02-28T07:11:55;0.47;;;0.20;;
23187;SDS011;11762;59.878;17.686;2023-02-28T07:14:22;1.70;;;0.20;;
23187;SDS011;11762;59.878;17.686;2023-02-28T07:16:50;0.60;;;0.23;;
23187;SDS011;11762;59.878;17.686;2023-02-28T07:19:17;0.33;;;0.20;;
23187;SDS011;11762;59.878;17.686;2023-02-28T07:21:45;1.37;;;0.30;;
23187;SDS011;11762;59.878;17.686;2023-02-28T07:24:12;0.40;;;0.30;;
23187;SDS011;11762;59.878;17.686;2023-02-28T07:26:40;0.10;;;0.10;;
23187;SDS011;11762;59.878;17.686;2023-02-28T07:29:07;0.83;;;0.33;;
23187;SDS011;11762;59.878;17.686;2023-02-28T07:31:34;0.23;;;0.20;;
23187;SDS011;11762;59.878;17.686;2023-02-28T07:34:03;0.60;;;0.30;;
23187;SDS011;11762;59.878;17.686;2023-02-28T07:36:30;0.27;;;0.20;;
23187;SDS011;11762;59.878;17.686;2023-02-28T07:38:57;0.57;;;0.30;;
23187;SDS011;11762;59.878;17.686;2023-02-28T07:41:25;0.10;;;0.10;;
23187;SDS011;11762;59.878;17.686;2023-02-28T07:43:53;0.43;;;0.30;;
23187;SDS011;11762;59.878;17.686;2023-02-28T07:46:20;0.63;;;0.30;;
23187;SDS011;11762;59.878;17.686;2023-02-28T07:48:48;0.30;;;0.20;;
23187;SDS011;11762;59.878;17.686;2023-02-28T07:51:16;0.20;;;0.20;;
23187;SDS011;11762;59.878;17.686;2023-02-28T07:53:43;1.20;;;0.47;;
23187;SDS011;11762;59.878;17.686;2023-02-28T07:56:10;0.43;;;0.30;;
23187;SDS011;11762;59.878;17.686;2023-02-28T07:58:37;0.30;;;0.20;;
23187;SDS011;11762;59.878;17.686;2023-02-28T08:01:05;0.90;;;0.30;;
23187;SDS011;11762;59.878;17.686;2023-02-28T08:03:33;0.53;;;0.20;;
23187;SDS011;11762;59.878;17.686;2023-02-28T08:06:00;1.23;;;0.20;;
23187;SDS011;11762;59.878;17.686;2023-02-28T08:08:29;0.67;;;0.37;;
23187;SDS011;11762;59.878;17.686;2023-02-28T08:10:58;0.23;;;0.20;;
23187;SDS011;11762;59.878;17.686;2023-02-28T08:13:26;0.83;;;0.30;;
23187;SDS011;11762;59.878;17.686;2023-02-28T08:15:54;0.63;;;0.20;;
23187;SDS011;11762;59.878;17.686;2023-02-28T08:18:22;0.10;;;0.10;;
23187;SDS011;11762;59.878;17.686;2023-02-28T08:20:49;0.60;;;0.10;;
23187;SDS011;11762;59.878;17.686;2023-02-28T08:23:16;0.50;;;0.20;;
23187;SDS011;11762;59.878;17.686;2023-02-28T08:25:52;0.40;;;0.30;;
23187;SDS011;11762;59.878;17.686;2023-02-28T08:28:20;0.33;;;0.30;;
23187;SDS011;11762;59.878;17.686;2023-02-28T08:30:47;0.67;;;0.20;;
23187;SDS011;11762;59.878;17.686;2023-02-28T08:33:14;0.43;;;0.30;;
23187;SDS011;11762;59.878;17.686;2023-02-28T08:35:41;0.17;;;0.10;;
23187;SDS011;11762;59.878;17.686;2023-02-28T08:38:08;0.30;;;0.20;;
23187;SDS011;11762;59.878;17.686;2023-02-28T08:40:35;0.40;;;0.20;;
23187;SDS011;11762;59.878;17.686;2023-02-28T08:43:04;0.20;;;0.10;;
23187;SDS011;11762;59.878;17.686;2023-02-28T08:45:31;0.37;;;0.27;;
23187;SDS011;11762;59.878;17.686;2023-02-28T08:47:58;1.40;;;0.20;;
23187;SDS011;11762;59.878;17.686;2023-02-28T08:50:25;0.30;;;0.13;;
23187;SDS011;11762;59.878;17.686;2023-02-28T08:52:52;0.47;;;0.30;;
23187;SDS011;11762;59.878;17.686;2023-02-28T08:55:19;1.50;;;0.20;;
23187;SDS011;11762;59.878;17.686;2023-02-28T08:57:46;0.33;;;0.20;;
23187;SDS011;11762;59.878;17.686;2023-02-28T09:00:15;1.70;;;0.30;;
23187;SDS011;11762;59.878;17.686;2023-02-28T09:02:42;0.30;;;0.20;;
23187;SDS011;11762;59.878;17.686;2023-02-28T09:05:09;0.23;;;0.20;;
23187;SDS011;11762;59.878;17.686;2023-02-28T09:07:36;0.10;;;0.10;;
23187;SDS011;11762;59.878;17.686;2023-02-28T09:10:03;1.03;;;0.33;;
23187;SDS011;11762;59.878;17.686;2023-02-28T09:12:32;0.20;;;0.20;;
23187;SDS011;11762;59.878;17.686;2023-02-28T09:15:01;0.20;;;0.20;;
23187;SDS011;11762;59.878;17.686;2023-02-28T09:17:30;2.10;;;0.20;;
23187;SDS011;11762;59.878;17.686;2023-02-28T09:19:57;0.43;;;0.30;;
23187;SDS011;11762;59.878;17.686;2023-02-28T09:22:24;0.90;;;0.40;;
23187;SDS011;11762;59.878;17.686;2023-02-28T09:24:51;0.20;;;0.20;;
23187;SDS011;11762;59.878;17.686;2023-02-28T09:27:18;0.30;;;0.17;;
23187;SDS011;11762;59.878;17.686;2023-02-28T09:29:45;0.20;;;0.20;;
23187;SDS011;11762;59.878;17.686;2023-02-28T09:32:12;0.30;;;0.20;;
23187;SDS011;11762;59.878;17.686;2023-02-28T09:34:41;0.20;;;0.10;;
23187;SDS011;11762;59.878;17.686;2023-02-28T09:37:08;0.10;;;0.10;;
23187;SDS011;11762;59.878;17.686;2023-02-28T09:39:35;0.43;;;0.10;;
23187;SDS011;11762;59.878;17.686;2023-02-28T09:42:03;0.10;;;0.10;;
23187;SDS011;11762;59.878;17.686;2023-02-28T09:44:34;0.40;;;0.20;;
23187;SDS011;11762;59.878;17.686;2023-02-28T09:47:07;0.43;;;0.20;;
23187;SDS011;11762;59.878;17.686;2023-02-28T09:49:41;2.10;;;0.30;;
23187;SDS011;11762;59.878;17.686;2023-02-28T09:52:12;0.10;;;0.10;;
23187;SDS011;11762;59.878;17.686;2023-02-28T09:54:44;0.30;;;0.20;;
23187;SDS011;11762;59.878;17.686;2023-02-28T09:57:14;1.80;;;0.40;;
23187;SDS011;11762;59.878;17.686;2023-02-28T09:59:49;0.73;;;0.30;;
23187;SDS011;11762;59.878;17.686;2023-02-28T10:02:38;0.77;;;0.40;;
23187;SDS011;11762;59.878;17.686;2023-02-28T10:05:27;0.30;;;0.20;;
23187;SDS011;11762;59.878;17.686;2023-02-28T10:08:04;0.77;;;0.20;;
23187;SDS011;11762;59.878;17.686;2023-02-28T10:10:37;2.37;;;0.20;;
23187;SDS011;11762;59.878;17.686;2023-02-28T10:13:12;0.50;;;0.30;;
23187;SDS011;11762;59.878;17.686;2023-02-28T10:15:42;0.53;;;0.27;;
23187;SDS011;11762;59.878;17.686;2023-02-28T10:18:12;1.27;;;0.37;;
23187;SDS011;11762;59.878;17.686;2023-02-28T10:20:44;0.57;;;0.30;;
23187;SDS011;11762;59.878;17.686;2023-02-28T10:23:13;2.20;;;0.53;;
23187;SDS011;11762;59.878;17.686;2023-02-28T10:25:44;0.20;;;0.20;;
23187;SDS011;11762;59.878;17.686;2023-02-28T10:28:14;0.20;;;0.20;;
23187;SDS011;11762;59.878;17.686;2023-02-28T10:30:44;2.60;;;0.30;;
23187;SDS011;11762;59.878;17.686;2023-02-28T10:33:18;0.27;;;0.10;;
23187;SDS011;11762;59.878;17.686;2023-02-28T10:35:50;1.17;;;0.20;;
23187;SDS011;11762;59.878;17.686;2023-02-28T10:38:19;0.40;;;0.20;;
23187;SDS011;11762;59.878;17.686;2023-02-28T10:40:48;2.03;;;0.77;;
23187;SDS011;11762;59.878;17.686;2023-02-28T10:43:19;1.80;;;0.33;;
23187;SDS011;11762;59.878;17.686;2023-02-28T10:45:53;1.10;;;0.50;;
23187;SDS011;11762;59.878;17.686;2023-02-28T10:48:36;2.03;;;0.30;;
23187;SDS011;11762;59.878;17.686;2023-02-28T10:51:06;1.20;;;0.50;;
23187;SDS011;11762;59.878;17.686;2023-02-28T10:53:37;3.03;;;0.47;;
23187;SDS011;11762;59.878;17.686;2023-02-28T10:56:17;0.87;;;0.50;;
23187;SDS011;11762;59.878;17.686;2023-02-28T10:58:56;2.37;;;1.00;;
23187;SDS011;11762;59.878;17.686;2023-02-28T11:01:24;0.50;;;0.33;;
23187;SDS011;11762;59.878;17.686;2023-02-28T11:04:00;3.53;;;0.50;;
23187;SDS011;11762;59.878;17.686;2023-02-28T11:06:30;1.10;;;0.57;;
23187;SDS011;11762;59.878;17.686;2023-02-28T11:08:59;2.13;;;0.50;;
23187;SDS011;11762;59.878;17.686;2023-02-28T11:11:30;0.90;;;0.50;;
23187;SDS011;11762;59.878;17.686;2023-02-28T11:14:14;2.07;;;0.80;;
23187;SDS011;11762;59.878;17.686;2023-02-28T11:16:46;0.60;;;0.30;;
23187;SDS011;11762;59.878;17.686;2023-02-28T11:19:17;2.17;;;0.63;;
23187;SDS011;11762;59.878;17.686;2023-02-28T11:21:51;1.27;;;0.50;;
23187;SDS011;11762;59.878;17.686;2023-02-28T11:24:22;3.27;;;0.80;;
23187;SDS011;11762;59.878;17.686;2023-02-28T11:26:51;2.20;;;0.70;;
23187;SDS011;11762;59.878;17.686;2023-02-28T11:29:19;3.20;;;1.50;;
23187;SDS011;11762;59.878;17.686;2023-02-28T11:32:11;1.57;;;0.57;;
23187;SDS011;11762;59.878;17.686;2023-02-28T11:34:42;0.67;;;0.30;;
23187;SDS011;11762;59.878;17.686;2023-02-28T11:37:12;0.47;;;0.20;;
23187;SDS011;11762;59.878;17.686;2023-02-28T11:39:41;1.17;;;0.40;;
23187;SDS011;11762;59.878;17.686;2023-02-28T11:42:23;1.53;;;0.30;;
23187;SDS011;11762;59.878;17.686;2023-02-28T11:45:16;0.40;;;0.30;;
23187;SDS011;11762;59.878;17.686;2023-02-28T11:48:04;1.03;;;0.30;;
23187;SDS011;11762;59.878;17.686;2023-02-28T11:50:42;1.50;;;0.20;;
23187;SDS011;11762;59.878;17.686;2023-02-28T11:53:19;0.93;;;0.30;;
23187;SDS011;11762;59.878;17.686;2023-02-28T11:55:54;0.97;;;0.20;;
23187;SDS011;11762;59.878;17.686;2023-02-28T11:58:31;5.00;;;0.40;;
23187;SDS011;11762;59.878;17.686;2023-02-28T12:03:58;1.50;;;0.77;;
23187;SDS011;11762;59.878;17.686;2023-02-28T12:06:31;1.37;;;0.60;;
23187;SDS011;11762;59.878;17.686;2023-02-28T12:09:11;1.23;;;0.40;;
23187;SDS011;11762;59.878;17.686;2023-02-28T12:12:02;0.50;;;0.30;;
23187;SDS011;11762;59.878;17.686;2023-02-28T12:14:49;1.30;;;0.50;;
23187;SDS011;11762;59.878;17.686;2023-02-28T12:17:39;1.00;;;0.37;;
23187;SDS011;11762;59.878;17.686;2023-02-28T12:20:17;0.90;;;0.30;;
23187;SDS011;11762;59.878;17.686;2023-02-28T12:22:54;1.97;;;0.27;;
23187;SDS011;11762;59.878;17.686;2023-02-28T12:25:37;2.60;;;1.00;;
23187;SDS011;11762;59.878;17.686;2023-02-28T12:28:13;3.30;;;0.47;;
23187;SDS011;11762;59.878;17.686;2023-02-28T12:30:46;0.50;;;0.27;;
23187;SDS011;11762;59.878;17.686;2023-02-28T12:33:20;0.77;;;0.43;;
23187;SDS011;11762;59.878;17.686;2023-02-28T12:35:54;0.57;;;0.40;;
23187;SDS011;11762;59.878;17.686;2023-02-28T12:38:23;1.23;;;0.30;;
23187;SDS011;11762;59.878;17.686;2023-02-28T12:40:56;0.20;;;0.20;;
23187;SDS011;11762;59.878;17.686;2023-02-28T12:43:28;1.80;;;0.40;;
23187;SDS011;11762;59.878;17.686;2023-02-28T12:45:59;1.30;;;0.40;;
23187;SDS011;11762;59.878;17.686;2023-02-28T12:48:31;0.30;;;0.20;;
23187;SDS011;11762;59.878;17.686;2023-02-28T12:51:06;0.77;;;0.30;;
23187;SDS011;11762;59.878;17.686;2023-02-28T12:53:36;4.23;;;0.43;;
23187;SDS011;11762;59.878;17.686;2023-02-28T12:56:15;2.00;;;0.70;;
23187;SDS011;11762;59.878;17.686;2023-02-28T12:58:47;0.20;;;0.20;;
23187;SDS011;11762;59.878;17.686;2023-02-28T13:01:29;5.63;;;0.50;;
23187;SDS011;11762;59.878;17.686;2023-02-28T13:04:15;1.63;;;0.57;;
23187;SDS011;11762;59.878;17.686;2023-02-28T13:07:00;1.47;;;0.47;;
23187;SDS011;11762;59.878;17.686;2023-02-28T13:09:51;0.90;;;0.50;;
23187;SDS011;11762;59.878;17.686;2023-02-28T13:12:21;1.93;;;0.60;;
23187;SDS011;11762;59.878;17.686;2023-02-28T13:14:48;3.43;;;0.53;;
23187;SDS011;11762;59.878;17.686;2023-02-28T13:17:17;3.20;;;0.50;;
23187;SDS011;11762;59.878;17.686;2023-02-28T13:19:55;2.07;;;0.80;;
23187;SDS011;11762;59.878;17.686;2023-02-28T13:22:37;0.90;;;0.50;;
23187;SDS011;11762;59.878;17.686;2023-02-28T13:31:33;18.60;;;0.80;;
23187;SDS011;11762;59.878;17.686;2023-02-28T13:34:41;2.90;;;1.40;;
23187;SDS011;11762;59.878;17.686;2023-02-28T13:37:35;2.33;;;1.17;;
23187;SDS011;11762;59.878;17.686;2023-02-28T13:42:54;7.47;;;2.20;;
23187;SDS011;11762;59.878;17.686;2023-02-28T13:45:22;4.90;;;1.70;;
23187;SDS011;11762;59.878;17.686;2023-02-28T13:47:52;3.87;;;1.10;;
23187;SDS011;11762;59.878;17.686;2023-02-28T13:50:21;1.20;;;0.43;;
23187;SDS011;11762;59.878;17.686;2023-02-28T13:52:57;2.97;;;0.60;;
23187;SDS011;11762;59.878;17.686;2023-02-28T13:55:48;1.80;;;0.90;;
23187;SDS011;11762;59.878;17.686;2023-02-28T13:58:28;4.43;;;0.70;;
23187;SDS011;11762;59.878;17.686;2023-02-28T14:01:14;0.57;;;0.30;;
23187;SDS011;11762;59.878;17.686;2023-02-28T14:04:04;1.43;;;0.60;;
23187;SDS011;11762;59.878;17.686;2023-02-28T14:06:52;3.80;;;0.67;;
23187;SDS011;11762;59.878;17.686;2023-02-28T14:09:23;3.60;;;0.50;;
23187;SDS011;11762;59.878;17.686;2023-02-28T14:11:53;1.07;;;0.33;;
23187;SDS011;11762;59.878;17.686;2023-02-28T14:17:21;2.40;;;0.40;;
23187;SDS011;11762;59.878;17.686;2023-02-28T14:19:50;2.37;;;0.50;;
23187;SDS011;11762;59.878;17.686;2023-02-28T14:22:25;0.40;;;0.20;;
23187;SDS011;11762;59.878;17.686;2023-02-28T14:25:23;2.20;;;0.50;;
23187;SDS011;11762;59.878;17.686;2023-02-28T14:28:03;0.47;;;0.30;;
23187;SDS011;11762;59.878;17.686;2023-02-28T14:30:43;0.60;;;0.30;;
23187;SDS011;11762;59.878;17.686;2023-02-28T14:36:16;1.43;;;0.30;;
23187;SDS011;11762;59.878;17.686;2023-02-28T14:38:47;3.80;;;0.40;;
23187;SDS011;11762;59.878;17.686;2023-02-28T14:41:21;0.83;;;0.30;;
23187;SDS011;11762;59.878;17.686;2023-02-28T14:43:50;4.50;;;0.60;;
23187;SDS011;11762;59.878;17.686;2023-02-28T14:46:19;1.13;;;0.53;;
23187;SDS011;11762;59.878;17.686;2023-02-28T14:48:47;4.37;;;0.87;;
23187;SDS011;11762;59.878;17.686;2023-02-28T14:51:18;1.70;;;0.40;;
23187;SDS011;11762;59.878;17.686;2023-02-28T14:53:48;3.30;;;0.40;;
23187;SDS011;11762;59.878;17.686;2023-02-28T14:56:23;1.90;;;1.17;;
23187;SDS011;11762;59.878;17.686;2023-02-28T14:58:51;0.77;;;0.30;;
23187;SDS011;11762;59.878;17.686;2023-02-28T15:01:19;3.83;;;0.40;;
23187;SDS011;11762;59.878;17.686;2023-02-28T15:03:48;1.57;;;0.30;;
23187;SDS011;11762;59.878;17.686;2023-02-28T15:06:23;1.67;;;0.43;;
23187;SDS011;11762;59.878;17.686;2023-02-28T15:09:01;2.43;;;0.50;;
23187;SDS011;11762;59.878;17.686;2023-02-28T15:11:35;1.50;;;0.30;;
23187;SDS011;11762;59.878;17.686;2023-02-28T15:14:03;0.50;;;0.20;;
23187;SDS011;11762;59.878;17.686;2023-02-28T15:16:31;1.23;;;0.40;;
23187;SDS011;11762;59.878;17.686;2023-02-28T15:19:02;0.90;;;0.40;;
23187;SDS011;11762;59.878;17.686;2023-02-28T15:21:32;1.17;;;0.30;;
23187;SDS011;11762;59.878;17.686;2023-02-28T15:24:03;2.13;;;0.30;;